Time;durP1;ratioP1;P1;durP2;ratioP2;P2;SDS_P1;SDS_P2;PMS_P1;PMS_P2;Temp;Humidity;BMP_temperature;BMP_pressure;BME280_temperature;BME280_humidity;BME280_pressure;Samples;Min_cycle;Max_cycle;Signal;HPM_P1;HPM_P2
2021/12/16 00:01:47;;;;;;;;;;;;;;;13.71;60.97;102342.53;4996210;28;7166;-72
2021/12/16 00:07:28;;;;;;;;;;;;;;;13.72;60.99;102340.09;5012341;28;6823;-72
2021/12/16 00:34:15;;;;;;;;;;;;;;;13.70;60.90;102341.63;4995800;28;6800;-72
2021/12/16 00:36:44;;;;;;;;;;;;;;;13.71;60.78;102334.81;5004724;28;7007;-72
2021/12/16 00:39:17;;;;;;;;;;;;;;;13.71;61.45;102340.88;5012466;28;6819;-72
2021/12/16 00:41:46;;;;;;;;;;;;;;;13.71;60.56;102340.88;4995085;28;8606;-72
2021/12/16 00:47:02;;;;;;;;;;;;;;;13.70;61.04;102341.63;5007167;28;6985;-72
2021/12/16 00:54:46;;;;;;;;;;;;;;;13.67;60.56;102344.03;4997191;28;8023;-72
2021/12/16 00:57:15;;;;;;;;;;;;;;;13.70;60.54;102344.22;5011875;28;6982;-72
2021/12/16 00:59:45;;;;;;;;;;;;;;;13.71;60.94;102348.59;5005894;28;7124;-72
2021/12/16 01:02:38;;;;;;;;;;;;;;;13.72;60.81;102350.41;5012070;28;6807;-72
2021/12/16 01:55:34;;;;;;;;;;;;;;;13.74;61.14;102372.00;5006452;28;6823;-72
2021/12/16 01:57:46;;;;;;;;;;;;;;;13.75;61.33;102366.03;5009880;28;6990;-72
2021/12/16 02:00:31;;;;;;;;;;;;;;;13.74;60.29;102368.50;4992751;28;6825;-72
2021/12/16 02:03:02;;;;;;;;;;;;;;;13.74;60.29;102373.66;4999427;28;7426;-72
2021/12/16 02:08:31;;;;;;;;;;;;;;;13.71;60.72;102371.81;5015223;28;6903;-72
2021/12/16 02:37:23;;;;;;;;;;;;;;;13.66;61.35;102378.31;5011141;28;6831;-72
2021/12/16 02:39:50;;;;;;;;;;;;;;;13.67;60.68;102376.66;5017929;28;6803;-72
2021/12/16 02:42:34;;;;;;;;;;;;;;;13.66;60.97;102374.84;4995521;28;6999;-73
2021/12/16 02:50:25;;;;;;;;;;;;;;;13.66;60.96;102378.31;5002105;28;6848;-72
2021/12/16 02:52:52;;;;;;;;;;;;;;;13.68;60.61;102391.31;4980062;28;6815;-72
2021/12/16 02:55:21;;;;;;;;;;;;;;;13.69;61.43;102391.41;5000767;28;8095;-72
2021/12/16 02:57:58;;;;;;;;;;;;;;;13.71;61.21;102388.94;4998265;28;6820;-72
2021/12/16 03:00:24;;;;;;;;;;;;;;;13.70;60.71;102385.44;5001887;28;7033;-72
2021/12/16 03:02:52;;;;;;;;;;;;;;;13.71;61.23;102388.94;4984859;28;6806;-71
2021/12/16 03:05:20;;;;;;;;;;;;;;;13.72;61.36;102390.72;4996562;28;7203;-72
2021/12/16 03:07:51;;;;;;;;;;;;;;;13.70;61.32;102390.59;4996838;28;6796;-71
2021/12/16 03:21:15;;;;;;;;;;;;;;;13.67;61.18;102387.81;4998472;28;6981;-71
2021/12/16 03:29:28;;;;;;;;;;;;;;;13.63;61.23;102395.25;5017345;28;6888;-71
2021/12/16 03:32:05;;;;;;;;;;;;;;;13.62;60.73;102389.22;5007601;28;9613;-71
2021/12/16 03:34:41;;;;;;;;;;;;;;;13.61;61.66;102384.81;5015206;28;6835;-71
2021/12/16 03:37:18;;;;;;;;;;;;;;;13.61;60.64;102400.28;4996417;28;6819;-72
2021/12/16 03:39:54;;;;;;;;;;;;;;;13.59;60.74;102399.31;4999545;28;6820;-71
2021/12/16 03:42:46;;;;;;;;;;;;;;;13.59;60.69;102389.00;5012459;28;7218;-71
2021/12/16 03:49:05;;;;;;;;;;;;;;;13.54;61.75;102392.97;5000269;28;7980;-71
2021/12/16 03:51:46;;;;;;;;;;;;;;;13.50;61.35;102398.69;5011811;28;6982;-71
2021/12/16 03:54:14;;;;;;;;;;;;;;;13.51;60.78;102400.47;4999578;28;6983;-71
2021/12/16 03:56:42;;;;;;;;;;;;;;;13.52;60.70;102395.41;5011323;28;7836;-71
2021/12/16 03:59:11;;;;;;;;;;;;;;;13.53;60.82;102406.63;4997225;28;6961;-71
2021/12/16 04:01:38;;;;;;;;;;;;;;;13.54;61.26;102405.84;5000061;28;7432;-71
2021/12/16 04:04:05;;;;;;;;;;;;;;;13.52;60.85;102395.41;4996018;28;6895;-71
2021/12/16 04:06:35;;;;;;;;;;;;;;;13.52;61.93;102410.88;4998518;28;8154;-71
2021/12/16 04:09:14;;;;;;;;;;;;;;;13.52;61.88;102409.97;5019523;28;7211;-71
2021/12/16 04:11:55;;;;;;;;;;;;;;;13.52;61.02;102409.97;4994205;28;7031;-72
2021/12/16 04:14:21;;;;;;;;;;;;;;;13.54;61.22;102416.16;4998166;28;6820;-71
2021/12/16 04:16:53;;;;;;;;;;;;;;;13.54;61.64;102411.00;5009471;28;6830;-71
2021/12/16 04:19:26;;;;;;;;;;;;;;;13.53;60.89;102416.94;5011669;28;7066;-72
2021/12/16 04:22:02;;;;;;;;;;;;;;;13.53;61.22;102422.09;4995196;28;6820;-72
2021/12/16 04:24:28;;;;;;;;;;;;;;;13.54;60.66;102416.16;4993580;28;6808;-71
2021/12/16 04:26:57;;;;;;;;;;;;;;;13.53;60.59;102417.81;5010748;28;6812;-71
2021/12/16 04:29:24;;;;;;;;;;;;;;;13.53;60.94;102427.25;5005256;28;6987;-71
2021/12/16 04:31:53;;;;;;;;;;;;;;;13.52;61.00;102425.44;5013970;28;6800;-72
2021/12/16 04:34:19;;;;;;;;;;;;;;;13.52;61.74;102430.56;5014956;28;6823;-71
2021/12/16 04:36:45;;;;;;;;;;;;;;;13.51;61.22;102433.94;5012306;28;6973;-71
2021/12/16 04:39:18;;;;;;;;;;;;;;;13.50;61.70;102429.59;4992284;28;7014;-71
2021/12/16 04:41:45;;;;;;;;;;;;;;;13.51;60.69;102428.78;4991162;28;6820;-71
2021/12/16 04:44:15;;;;;;;;;;;;;;;13.50;60.68;102427.00;5009387;28;7138;-71
2021/12/16 04:46:44;;;;;;;;;;;;;;;13.47;60.62;102428.59;5009264;28;7105;-71
2021/12/16 04:49:12;;;;;;;;;;;;;;;13.47;60.82;102431.16;4995483;28;7883;-71
2021/12/16 04:51:45;;;;;;;;;;;;;;;13.46;61.94;102431.97;4982175;28;6816;-71
2021/12/16 04:54:13;;;;;;;;;;;;;;;13.46;61.88;102431.06;4996009;28;8589;-71
2021/12/16 04:56:41;;;;;;;;;;;;;;;13.44;61.71;102433.53;5007574;28;7131;-72
2021/12/16 04:59:12;;;;;;;;;;;;;;;13.43;61.09;102430.81;4993479;28;7694;-71
2021/12/16 05:01:43;;;;;;;;;;;;;;;13.39;61.21;102419.41;4993107;28;6991;-71
2021/12/16 05:04:10;;;;;;;;;;;;;;;13.38;61.46;102427.06;4995854;28;8531;-71
2021/12/16 05:06:37;;;;;;;;;;;;;;;13.34;60.84;102429.41;5010418;28;6820;-71
2021/12/16 05:09:06;;;;;;;;;;;;;;;13.32;62.00;102419.75;4997207;28;7311;-71
2021/12/16 05:11:35;;;;;;;;;;;;;;;13.27;61.21;102423.72;5013289;28;6888;-71
2021/12/16 05:14:06;;;;;;;;;;;;;;;13.25;61.74;102420.16;5014663;28;6883;-71
2021/12/16 05:16:33;;;;;;;;;;;;;;;13.20;61.71;102418.13;5015471;28;9816;-71
2021/12/16 05:18:59;;;;;;;;;;;;;;;13.18;62.14;102418.81;4999322;28;6804;-71
2021/12/16 05:21:53;;;;;;;;;;;;;;;13.14;62.19;102420.31;5008261;28;7481;-71
2021/12/16 05:24:25;;;;;;;;;;;;;;;13.10;61.81;102414.84;5005381;28;6824;-71
2021/12/16 05:27:00;;;;;;;;;;;;;;;13.06;61.51;102416.28;4999315;28;7166;-71
2021/12/16 05:29:26;;;;;;;;;;;;;;;13.02;61.43;102414.28;5015710;28;7034;-71
2021/12/16 05:31:53;;;;;;;;;;;;;;;12.99;61.85;102411.50;5016160;28;7970;-72
2021/12/16 05:34:21;;;;;;;;;;;;;;;12.97;61.31;102413.94;4994681;28;6823;-71
2021/12/16 05:36:47;;;;;;;;;;;;;;;12.93;62.06;102417.09;4998539;28;6812;-71
2021/12/16 05:39:16;;;;;;;;;;;;;;;12.91;61.18;102419.56;5013061;28;6954;-71
2021/12/16 05:41:42;;;;;;;;;;;;;;;12.88;61.47;102421.94;4998798;28;8718;-72
2021/12/16 05:44:08;;;;;;;;;;;;;;;12.87;62.21;102427.88;4984243;28;6808;-71
2021/12/16 05:46:35;;;;;;;;;;;;;;;12.85;61.81;102426.88;5006613;28;7193;-71
2021/12/16 05:49:05;;;;;;;;;;;;;;;12.85;61.80;102429.44;5015223;28;6816;-71
2021/12/16 05:51:36;;;;;;;;;;;;;;;12.82;61.92;102429.19;4999290;28;7175;-73
2021/12/16 05:54:05;;;;;;;;;;;;;;;12.81;61.71;102436.84;5015576;28;6899;-71
2021/12/16 05:56:31;;;;;;;;;;;;;;;12.80;61.66;102433.34;4988006;28;7001;-72
2021/12/16 05:58:57;;;;;;;;;;;;;;;12.79;62.37;102444.44;5010476;28;6799;-72
2021/12/16 06:01:30;;;;;;;;;;;;;;;12.78;61.68;102452.94;5014718;28;6803;-71
2021/12/16 06:03:57;;;;;;;;;;;;;;;12.78;61.70;102455.50;4998006;28;6808;-72
2021/12/16 06:06:24;;;;;;;;;;;;;;;12.77;62.03;102457.19;5013038;28;6827;-72
2021/12/16 06:08:51;;;;;;;;;;;;;;;12.76;62.23;102449.38;5013478;28;6888;-71
2021/12/16 06:11:26;;;;;;;;;;;;;;;12.75;62.46;102460.44;5002313;28;6986;-71
2021/12/16 06:14:03;;;;;;;;;;;;;;;12.76;62.51;102462.22;5015790;28;7680;-71
2021/12/16 06:27:34;;;;;;;;;;;;;;;12.67;62.46;102471.84;5005378;28;7203;-71
2021/12/16 06:30:00;;;;;;;;;;;;;;;12.66;62.26;102477.78;5007961;28;7207;-71
2021/12/16 06:32:26;;;;;;;;;;;;;;;12.64;62.19;102470.81;4997645;28;7027;-72
2021/12/16 06:34:54;;;;;;;;;;;;;;;12.63;62.30;102474.19;4999038;28;7333;-72
2021/12/16 06:37:22;;;;;;;;;;;;;;;12.59;61.70;102479.91;5017918;28;7129;-72
2021/12/16 06:39:49;;;;;;;;;;;;;;;12.55;61.80;102479.56;4985561;28;6944;-72
2021/12/16 06:42:15;;;;;;;;;;;;;;;12.49;61.81;102467.16;5000876;28;7035;-72
2021/12/16 06:44:49;;;;;;;;;;;;;;;12.45;61.83;102483.13;5008199;28;6946;-71
2021/12/16 06:47:21;;;;;;;;;;;;;;;12.38;61.93;102486.94;4993859;28;8139;-72
2021/12/16 06:49:49;;;;;;;;;;;;;;;12.32;62.31;102489.06;4996356;28;7130;-72
2021/12/16 06:52:19;;;;;;;;;;;;;;;12.29;62.14;102496.53;5016090;28;6804;-72
2021/12/16 06:55:03;;;;;;;;;;;;;;;12.24;61.85;102488.47;4985286;28;6985;-71
2021/12/16 07:00:13;;;;;;;;;;;;;;;12.15;62.88;102491.25;5016340;28;6901;-71
2021/12/16 07:02:55;;;;;;;;;;;;;;;12.13;62.34;102491.91;5018049;28;6819;-71
2021/12/16 07:05:28;;;;;;;;;;;;;;;12.10;62.07;102489.13;5006938;28;8465;-71
2021/12/16 07:07:54;;;;;;;;;;;;;;;12.05;62.49;102491.34;5016162;28;6966;-72
2021/12/16 07:10:21;;;;;;;;;;;;;;;12.01;62.57;102503.03;5008396;28;7881;-72
2021/12/16 07:12:49;;;;;;;;;;;;;;;11.99;62.51;102507.16;4984974;28;6800;-72
2021/12/16 07:15:26;;;;;;;;;;;;;;;11.98;63.18;102499.34;5006350;28;6970;-72
2021/12/16 07:17:54;;;;;;;;;;;;;;;11.97;62.42;102506.13;4999463;28;6819;-71
2021/12/16 07:20:27;;;;;;;;;;;;;;;11.93;62.75;102520.47;5013157;28;7618;-71
2021/12/16 07:22:55;;;;;;;;;;;;;;;11.92;63.08;102523.78;5002369;28;6827;-71
2021/12/16 07:25:21;;;;;;;;;;;;;;;11.92;62.33;102515.19;4981316;28;6996;-72
2021/12/16 07:27:47;;;;;;;;;;;;;;;11.90;62.83;102525.34;4998637;28;6792;-72
2021/12/16 07:30:16;;;;;;;;;;;;;;;11.89;63.06;102532.94;5002259;28;6950;-71
2021/12/16 07:32:42;;;;;;;;;;;;;;;11.87;62.41;102527.69;5015603;28;6974;-71
2021/12/16 07:35:16;;;;;;;;;;;;;;;11.86;62.55;102536.16;4996869;28;6820;-71
2021/12/16 07:37:42;;;;;;;;;;;;;;;11.85;62.65;102530.91;4998610;28;6835;-71
2021/12/16 07:40:14;;;;;;;;;;;;;;;11.84;62.16;102539.41;5005811;28;6812;-71
2021/12/16 07:42:59;;;;;;;;;;;;;;;11.82;62.49;102544.41;4999519;28;7014;-71
2021/12/16 07:45:27;;;;;;;;;;;;;;;11.81;62.68;102551.22;4999094;28;6895;-71
2021/12/16 07:47:55;;;;;;;;;;;;;;;11.85;62.84;102556.59;5001896;28;6811;-72
2021/12/16 07:50:23;;;;;;;;;;;;;;;11.86;62.89;102560.97;4977450;28;7015;-71
2021/12/16 07:52:50;;;;;;;;;;;;;;;11.86;62.81;102568.66;5003044;28;6885;-71
2021/12/16 07:55:18;;;;;;;;;;;;;;;11.88;62.62;102575.72;5011586;28;6982;-72
2021/12/16 07:57:44;;;;;;;;;;;;;;;11.91;62.45;102575.94;5011946;28;6942;-72
2021/12/16 08:00:19;;;;;;;;;;;;;;;11.96;62.66;102584.00;5014150;28;7959;-72
2021/12/16 08:02:46;;;;;;;;;;;;;;;12.03;63.23;102580.31;5000692;28;7250;-72
2021/12/16 08:05:12;;;;;;;;;;;;;;;12.07;63.37;102580.66;5013248;28;6973;-72
2021/12/16 08:07:42;;;;;;;;;;;;;;;12.13;62.42;102592.16;4979116;28;7207;-72
2021/12/16 08:10:15;;;;;;;;;;;;;;;12.19;62.97;102592.66;5015145;28;7014;-72
2021/12/16 08:12:41;;;;;;;;;;;;;;;12.25;62.45;102597.38;4990030;28;7045;-72
2021/12/16 08:15:12;;;;;;;;;;;;;;;12.30;62.71;102603.72;5008278;28;6799;-72
2021/12/16 08:17:38;;;;;;;;;;;;;;;12.31;62.55;102603.88;5013163;28;6995;-72
2021/12/16 08:20:07;;;;;;;;;;;;;;;12.36;63.08;102606.78;5015446;28;6998;-72
2021/12/16 08:22:33;;;;;;;;;;;;;;;12.41;62.96;102600.34;5002893;28;6887;-71
2021/12/16 08:24:58;;;;;;;;;;;;;;;12.46;62.69;102598.97;4993401;28;6815;-71
2021/12/16 08:27:24;;;;;;;;;;;;;;;12.54;62.75;102614.09;5016133;28;6783;-73
2021/12/16 08:29:50;;;;;;;;;;;;;;;12.58;62.34;102619.59;5013761;28;7186;-72
2021/12/16 08:32:16;;;;;;;;;;;;;;;12.64;63.05;102614.00;5014403;28;6957;-72
2021/12/16 08:34:45;;;;;;;;;;;;;;;12.69;62.67;102612.66;4979327;28;6780;-72
2021/12/16 08:37:14;;;;;;;;;;;;;;;12.72;62.11;102623.22;5011850;28;7955;-72
2021/12/16 08:39:40;;;;;;;;;;;;;;;12.78;62.98;102622.78;5014153;28;6811;-72
2021/12/16 08:42:09;;;;;;;;;;;;;;;12.85;61.95;102624.13;4998299;28;6958;-73
2021/12/16 08:44:37;;;;;;;;;;;;;;;12.90;61.97;102628.81;4993184;28;6993;-72
2021/12/16 08:47:10;;;;;;;;;;;;;;;12.96;62.01;102637.78;4999151;28;7167;-72
2021/12/16 08:49:36;;;;;;;;;;;;;;;12.99;62.55;102640.59;4981195;28;6862;-72
2021/12/16 08:52:10;;;;;;;;;;;;;;;13.03;61.85;102640.00;5017689;28;6800;-71
2021/12/16 08:54:37;;;;;;;;;;;;;;;13.05;62.65;102639.34;4997692;28;6823;-72
2021/12/16 08:57:04;;;;;;;;;;;;;;;13.06;61.81;102625.69;4998652;28;7186;-72
2021/12/16 08:59:31;;;;;;;;;;;;;;;13.10;61.77;102633.66;4998709;28;7016;-72
2021/12/16 09:02:00;;;;;;;;;;;;;;;13.10;62.55;102651.69;4997427;28;6816;-72
2021/12/16 09:04:28;;;;;;;;;;;;;;;13.10;62.19;102644.84;5014895;28;6899;-72
2021/12/16 09:07:00;;;;;;;;;;;;;;;13.13;62.00;102636.44;5015859;28;6811;-72
2021/12/16 09:09:32;;;;;;;;;;;;;;;13.17;62.58;102661.63;5001677;28;7231;-72
2021/12/16 09:12:11;;;;;;;;;;;;;;;13.19;62.26;102653.25;5016913;28;6823;-72
2021/12/16 09:14:39;;;;;;;;;;;;;;;13.25;61.95;102654.50;5000902;28;6811;-72
2021/12/16 09:17:11;;;;;;;;;;;;;;;13.31;62.25;102665.22;5000071;28;7336;-72
2021/12/16 09:19:47;;;;;;;;;;;;;;;13.38;61.88;102667.47;4998849;28;7036;-72
2021/12/16 09:22:16;;;;;;;;;;;;;;;13.46;62.00;102650.00;4999641;28;7258;-72
2021/12/16 09:24:43;;;;;;;;;;;;;;;13.57;62.41;102658.53;5000931;28;6824;-71
2021/12/16 09:27:09;;;;;;;;;;;;;;;13.64;62.25;102668.50;4984514;28;6958;-72
2021/12/16 09:29:34;;;;;;;;;;;;;;;13.68;61.83;102661.88;5001283;28;6791;-72
2021/12/16 09:32:03;;;;;;;;;;;;;;;13.66;61.64;102656.59;5015331;28;6943;-71
2021/12/16 09:34:31;;;;;;;;;;;;;;;13.64;60.98;102658.19;5016367;28;6976;-72
2021/12/16 09:36:57;;;;;;;;;;;;;;;13.59;60.73;102663.00;4982801;28;8286;-72
2021/12/16 09:39:26;;;;;;;;;;;;;;;13.54;61.66;102669.50;5018482;28;6796;-72
2021/12/16 09:41:57;;;;;;;;;;;;;;;13.49;60.53;102651.91;5009505;28;6811;-71
2021/12/16 09:44:25;;;;;;;;;;;;;;;13.45;61.41;102656.88;5000354;28;6808;-71
2021/12/16 09:46:55;;;;;;;;;;;;;;;13.42;60.73;102669.50;4998922;28;6804;-71
2021/12/16 09:49:22;;;;;;;;;;;;;;;13.40;61.88;102655.59;4999560;28;6804;-72
2021/12/16 09:51:51;;;;;;;;;;;;;;;13.39;61.95;102655.50;5017324;28;7275;-72
2021/12/16 09:54:25;;;;;;;;;;;;;;;13.39;61.79;102666.69;4982993;28;6991;-73
2021/12/16 09:56:53;;;;;;;;;;;;;;;13.40;61.31;102667.59;5000223;28;7561;-72
2021/12/16 09:59:23;;;;;;;;;;;;;;;13.43;62.03;102667.78;4985182;28;7072;-72
2021/12/16 10:01:54;;;;;;;;;;;;;;;13.46;61.76;102668.94;4998592;28;7424;-71
2021/12/16 10:04:25;;;;;;;;;;;;;;;13.51;61.94;102668.38;4993743;28;7149;-71
2021/12/16 10:06:54;;;;;;;;;;;;;;;13.58;62.77;102673.19;4983569;28;6887;-71
2021/12/16 10:09:20;;;;;;;;;;;;;;;13.65;61.86;102672.84;5017082;28;7756;-71
2021/12/16 10:11:52;;;;;;;;;;;;;;;13.74;62.10;102676.09;4999226;28;7167;-71
2021/12/16 10:20:41;;;;;;;;;;;;;;;14.12;61.97;102679.56;5006542;28;6896;-72
2021/12/16 10:23:31;;;;;;;;;;;;;;;14.26;62.70;102675.38;4978558;28;7100;-72
2021/12/16 10:26:09;;;;;;;;;;;;;;;14.38;62.05;102670.19;5014710;28;6815;-72
2021/12/16 10:28:46;;;;;;;;;;;;;;;14.55;62.53;102668.75;4985659;28;6832;-72
2021/12/16 10:31:30;;;;;;;;;;;;;;;14.75;61.59;102670.94;5010109;28;6812;-72
2021/12/16 10:34:00;;;;;;;;;;;;;;;14.95;61.83;102664.50;5016909;28;6823;-72
2021/12/16 10:36:32;;;;;;;;;;;;;;;15.18;60.83;102670.28;4999782;28;6827;-72
2021/12/16 10:39:16;;;;;;;;;;;;;;;15.40;60.79;102664.81;5001133;28;6824;-71
2021/12/16 10:41:52;;;;;;;;;;;;;;;15.60;60.76;102680.72;4990171;28;8124;-72
2021/12/16 10:44:33;;;;;;;;;;;;;;;15.81;60.81;102670.81;5016412;28;7383;-72
2021/12/16 10:47:09;;;;;;;;;;;;;;;16.00;60.24;102670.34;5001235;28;6816;-72
2021/12/16 10:49:52;;;;;;;;;;;;;;;16.22;59.68;102677.72;5002258;28;7102;-72
2021/12/16 10:52:31;;;;;;;;;;;;;;;16.48;59.51;102674.94;5016878;28;6899;-72
2021/12/16 10:54:59;;;;;;;;;;;;;;;16.79;58.85;102668.97;5017961;28;6824;-72
2021/12/16 10:57:29;;;;;;;;;;;;;;;17.11;58.07;102663.91;5018608;28;6804;-71
2021/12/16 11:00:10;;;;;;;;;;;;;;;17.39;56.67;102658.56;5019659;28;7262;-71
2021/12/16 11:02:39;;;;;;;;;;;;;;;17.65;56.53;102658.22;5002988;28;6812;-72
2021/12/16 11:05:20;;;;;;;;;;;;;;;17.79;56.08;102659.88;4999357;28;6997;-72
2021/12/16 11:08:08;;;;;;;;;;;;;;;17.95;55.50;102652.91;5000474;28;6812;-72
2021/12/16 11:10:37;;;;;;;;;;;;;;;18.10;55.29;102656.38;5009387;28;7875;-72
2021/12/16 11:13:11;;;;;;;;;;;;;;;18.27;54.46;102649.47;5017217;28;6804;-72
2021/12/16 11:15:52;;;;;;;;;;;;;;;18.49;53.97;102647.09;5008589;28;7013;-72
2021/12/16 11:18:24;;;;;;;;;;;;;;;18.72;52.88;102651.72;5009137;28;6812;-72
2021/12/16 11:21:09;;;;;;;;;;;;;;;19.06;52.07;102643.88;5016450;28;7017;-72
2021/12/16 11:23:43;;;;;;;;;;;;;;;19.28;51.90;102645.81;5017382;28;6896;-71
2021/12/16 11:26:15;;;;;;;;;;;;;;;19.42;51.80;102639.53;5016048;28;6891;-72
2021/12/16 11:28:46;;;;;;;;;;;;;;;19.55;51.67;102641.00;4983719;28;6811;-72
2021/12/16 11:31:25;;;;;;;;;;;;;;;19.67;51.39;102647.59;5016978;28;7042;-72
2021/12/16 11:33:58;;;;;;;;;;;;;;;19.77;50.76;102644.59;5016841;28;6987;-72
2021/12/16 11:36:36;;;;;;;;;;;;;;;19.92;50.29;102646.13;4997314;28;7697;-71
2021/12/16 11:39:31;;;;;;;;;;;;;;;20.11;49.43;102647.84;5015608;28;7077;-72
2021/12/16 11:42:04;;;;;;;;;;;;;;;20.39;48.99;102649.06;5021732;28;6883;-72
2021/12/16 11:44:37;;;;;;;;;;;;;;;20.67;49.17;102656.34;5014953;28;7924;-72
2021/12/16 11:47:26;;;;;;;;;;;;;;;20.98;48.21;102648.06;4999675;28;7209;-72
2021/12/16 11:49:59;;;;;;;;;;;;;;;21.13;47.81;102651.25;5017969;28;7556;-72
2021/12/16 11:52:37;;;;;;;;;;;;;;;21.23;48.06;102653.41;5000302;28;7040;-72
2021/12/16 11:55:18;;;;;;;;;;;;;;;21.39;47.50;102643.59;5014408;28;6815;-72
2021/12/16 11:57:54;;;;;;;;;;;;;;;21.50;46.96;102642.28;5000189;28;7232;-72
2021/12/16 12:00:30;;;;;;;;;;;;;;;21.43;46.56;102639.38;5012660;28;6974;-72
2021/12/16 12:03:07;;;;;;;;;;;;;;;21.07;46.75;102644.09;5000024;28;7773;-72
2021/12/16 12:05:42;;;;;;;;;;;;;;;20.62;47.54;102660.47;5015073;28;6824;-72
2021/12/16 12:08:23;;;;;;;;;;;;;;;20.20;48.23;102652.59;4995747;28;8074;-72
2021/12/16 12:11:18;;;;;;;;;;;;;;;19.80;47.99;102652.56;5012042;28;6976;-72
2021/12/16 12:13:56;;;;;;;;;;;;;;;19.54;49.23;102653.91;4998064;28;7431;-72
2021/12/16 12:16:43;;;;;;;;;;;;;;;19.28;49.60;102662.28;5016263;28;6828;-72
2021/12/16 12:19:20;;;;;;;;;;;;;;;19.11;49.61;102652.75;4980729;28;6896;-72
2021/12/16 12:21:58;;;;;;;;;;;;;;;18.99;49.49;102655.66;4994044;28;6807;-72
2021/12/16 12:24:46;;;;;;;;;;;;;;;18.87;49.84;102655.91;5010087;28;6819;-72
2021/12/16 12:27:21;;;;;;;;;;;;;;;18.76;50.31;102649.31;4979675;28;7343;-72
2021/12/16 12:29:58;;;;;;;;;;;;;;;18.62;49.74;102646.88;4994593;28;6815;-72
2021/12/16 12:32:38;;;;;;;;;;;;;;;18.49;49.80;102644.50;4996658;28;7157;-72
2021/12/16 12:35:16;;;;;;;;;;;;;;;18.34;50.73;102648.06;5013602;28;6819;-72
2021/12/16 12:37:47;;;;;;;;;;;;;;;18.22;50.69;102639.66;4974481;28;7051;-72
2021/12/16 12:40:28;;;;;;;;;;;;;;;18.14;50.87;102636.66;4999508;28;6800;-72
2021/12/16 12:42:56;;;;;;;;;;;;;;;18.10;51.03;102651.19;5006029;28;7162;-72
2021/12/16 12:45:30;;;;;;;;;;;;;;;18.07;51.55;102642.34;4993138;28;6811;-73
2021/12/16 12:47:59;;;;;;;;;;;;;;;18.02;51.08;102649.84;4996563;28;6990;-72
2021/12/16 12:50:37;;;;;;;;;;;;;;;17.96;50.87;102645.22;4997015;28;6812;-72
2021/12/16 12:53:23;;;;;;;;;;;;;;;17.93;51.27;102637.28;4994667;28;7124;-72
2021/12/16 12:55:56;;;;;;;;;;;;;;;17.90;51.40;102640.59;5012699;28;6903;-72
2021/12/16 12:58:33;;;;;;;;;;;;;;;17.88;51.09;102639.63;4995694;28;7600;-72
2021/12/16 13:01:05;;;;;;;;;;;;;;;17.87;51.25;102630.06;4979244;28;6981;-72
2021/12/16 13:03:36;;;;;;;;;;;;;;;17.85;50.82;102639.44;4997111;28;7325;-72
2021/12/16 13:06:09;;;;;;;;;;;;;;;17.80;51.05;102634.81;4994924;28;7035;-72
2021/12/16 13:08:40;;;;;;;;;;;;;;;17.74;50.98;102640.56;4994271;28;8283;-72
2021/12/16 13:11:18;;;;;;;;;;;;;;;17.67;51.21;102635.84;4993626;28;6812;-72
2021/12/16 13:14:36;;;;;;;;;;;;;;;17.61;50.59;102639.00;4998418;28;6827;-72
2021/12/16 13:28:42;;;;;;;;;;;;;;;17.41;51.25;102648.31;5018046;28;7153;-72
2021/12/16 13:31:50;;;;;;;;;;;;;;;17.35;51.31;102647.13;5002983;28;6832;-72
2021/12/16 13:34:50;;;;;;;;;;;;;;;17.33;50.78;102650.44;5016136;28;7020;-72
2021/12/16 13:37:24;;;;;;;;;;;;;;;17.33;51.66;102651.34;5005915;28;7590;-72
2021/12/16 13:40:06;;;;;;;;;;;;;;;17.37;51.41;102646.31;4992390;28;7765;-72
2021/12/16 13:42:59;;;;;;;;;;;;;;;17.39;51.18;102649.91;4998218;28;6851;-72
2021/12/16 13:45:32;;;;;;;;;;;;;;;17.35;51.07;102647.13;5014511;28;6811;-72
2021/12/16 14:05:34;;;;;;;;;;;;;;;16.94;51.25;102654.31;5016348;28;6824;-72
2021/12/16 14:08:09;;;;;;;;;;;;;;;16.89;50.98;102647.97;4999969;28;7065;-72
2021/12/16 14:10:50;;;;;;;;;;;;;;;16.86;51.15;102650.41;5000076;28;7352;-72
2021/12/16 14:17:08;;;;;;;;;;;;;;;16.82;51.77;102653.59;5014923;28;7039;-72
2021/12/16 14:45:36;;;;;;;;;;;;;;;16.64;51.25;102679.31;4997872;28;7006;-72
2021/12/16 14:48:35;;;;;;;;;;;;;;;16.51;52.24;102667.34;5001490;28;6900;-72
2021/12/16 14:51:15;;;;;;;;;;;;;;;16.41;52.17;102676.22;4993909;28;6967;-72
2021/12/16 14:53:54;;;;;;;;;;;;;;;16.34;52.46;102685.31;4996870;28;6815;-72
2021/12/16 14:56:31;;;;;;;;;;;;;;;16.28;52.61;102684.06;5016325;28;6808;-72
2021/12/16 14:59:03;;;;;;;;;;;;;;;16.23;52.96;102686.38;4999515;28;7239;-72
2021/12/16 15:01:45;;;;;;;;;;;;;;;16.20;52.90;102688.78;4982806;28;7250;-72
2021/12/16 15:04:17;;;;;;;;;;;;;;;16.17;53.40;102685.97;5018293;28;6816;-72
2021/12/16 15:06:58;;;;;;;;;;;;;;;16.13;53.23;102682.34;4989477;28;6886;-72
2021/12/16 15:09:32;;;;;;;;;;;;;;;16.08;53.27;102676.88;5003714;28;7019;-72
2021/12/16 15:12:19;;;;;;;;;;;;;;;16.05;53.64;102684.44;4993904;28;6986;-72
2021/12/16 15:15:10;;;;;;;;;;;;;;;16.02;53.75;102699.75;5002370;28;7216;-72
2021/12/16 15:40:41;;;;;;;;;;;;;;;15.92;54.36;102700.88;5017312;28;7184;-72
2021/12/16 15:43:13;;;;;;;;;;;;;;;15.92;54.63;102706.03;4987277;28;7479;-72
2021/12/16 15:45:45;;;;;;;;;;;;;;;15.94;54.45;102707.06;4998606;28;6887;-72
2021/12/16 15:48:17;;;;;;;;;;;;;;;15.92;54.63;102708.63;5000862;28;6991;-72
2021/12/16 15:50:52;;;;;;;;;;;;;;;15.90;54.79;102705.06;5016311;28;7212;-72
2021/12/16 15:53:29;;;;;;;;;;;;;;;15.87;54.81;102707.44;5014172;28;7160;-72
2021/12/16 15:56:12;;;;;;;;;;;;;;;15.87;54.85;102706.50;5001266;28;7328;-72
2021/12/16 15:59:16;;;;;;;;;;;;;;;15.81;54.56;102707.94;5018547;28;6835;-72
2021/12/16 16:01:52;;;;;;;;;;;;;;;15.78;54.52;102704.25;4985182;28;6879;-72
2021/12/16 16:04:33;;;;;;;;;;;;;;;15.76;54.74;102709.31;5016377;28;6969;-72
2021/12/16 16:07:14;;;;;;;;;;;;;;;15.74;55.26;102710.00;5017717;28;6831;-72
2021/12/16 16:09:44;;;;;;;;;;;;;;;15.72;55.37;102706.44;5016799;28;7202;-72
2021/12/16 16:12:16;;;;;;;;;;;;;;;15.67;55.50;102709.63;5000382;28;6811;-72
2021/12/16 16:14:49;;;;;;;;;;;;;;;15.63;55.21;102709.34;4999269;28;6896;-72
2021/12/16 16:17:19;;;;;;;;;;;;;;;15.59;55.34;102713.41;5014545;28;6908;-72
2021/12/16 16:19:49;;;;;;;;;;;;;;;15.56;55.35;102713.22;5000067;28;6820;-72
2021/12/16 16:22:16;;;;;;;;;;;;;;;15.53;55.42;102720.75;5001259;28;6808;-72
2021/12/16 16:24:53;;;;;;;;;;;;;;;15.48;55.58;102712.72;5016500;28;6993;-72
2021/12/16 16:27:25;;;;;;;;;;;;;;;15.44;56.04;102721.06;4998670;28;7272;-72
2021/12/16 16:29:55;;;;;;;;;;;;;;;15.40;55.72;102719.06;5000710;28;7413;-72
2021/12/16 16:32:23;;;;;;;;;;;;;;;15.40;55.65;102729.41;5016246;28;6812;-72
2021/12/16 16:34:55;;;;;;;;;;;;;;;15.38;56.36;102718.06;5002002;28;6835;-72
2021/12/16 16:37:28;;;;;;;;;;;;;;;15.41;55.73;102732.09;5007842;28;8024;-72
2021/12/16 16:40:00;;;;;;;;;;;;;;;15.43;55.87;102733.88;5017059;28;7174;-73
2021/12/16 16:42:38;;;;;;;;;;;;;;;15.44;56.04;102730.50;4985305;28;7161;-73
2021/12/16 16:45:17;;;;;;;;;;;;;;;15.44;55.70;102736.56;5006177;28;6816;-73
2021/12/16 16:47:50;;;;;;;;;;;;;;;15.46;56.29;102734.09;4984091;28;7769;-73
2021/12/16 16:50:22;;;;;;;;;;;;;;;15.44;55.94;102736.56;5000975;28;6854;-72
2021/12/16 16:52:55;;;;;;;;;;;;;;;15.43;56.05;102739.97;5013284;28;8383;-72
2021/12/16 16:55:28;;;;;;;;;;;;;;;15.42;56.48;102738.19;4998983;28;7024;-73
2021/12/16 16:58:05;;;;;;;;;;;;;;;15.39;56.16;102738.88;4999941;28;6800;-72
2021/12/16 17:00:50;;;;;;;;;;;;;;;15.35;56.69;102734.28;5008158;28;6811;-72
2021/12/16 17:03:22;;;;;;;;;;;;;;;15.31;56.35;102739.16;5014782;28;6804;-72
2021/12/16 17:05:57;;;;;;;;;;;;;;;15.28;55.85;102739.84;4987577;28;7032;-72
2021/12/16 17:08:40;;;;;;;;;;;;;;;15.28;56.46;102738.16;5005365;28;8415;-72
2021/12/16 17:11:15;;;;;;;;;;;;;;;15.29;56.46;102733.88;5003538;28;6819;-73
2021/12/16 17:13:57;;;;;;;;;;;;;;;15.28;56.91;102737.28;5000342;28;7044;-72
2021/12/16 17:19:26;;;;;;;;;;;;;;;15.28;56.47;102735.56;5003955;28;6804;-72
2021/12/16 17:21:52;;;;;;;;;;;;;;;15.31;56.83;102739.16;5015895;28;6978;-72
2021/12/16 17:24:21;;;;;;;;;;;;;;;15.31;56.71;102740.03;5017150;28;6808;-72